sensor_id;sensor_type;location;lat;lon;timestamp;pressure;altitude;pressure_sealevel;temperature
37536;BMP180;23379;51.554;6.736;2023-06-19T00:01:15;100426.00;;;24.10
37536;BMP180;23379;51.554;6.736;2023-06-19T00:03:40;100429.00;;;24.00
37536;BMP180;23379;51.554;6.736;2023-06-19T00:06:06;100401.00;;;24.00
37536;BMP180;23379;51.554;6.736;2023-06-19T00:08:31;100408.00;;;23.80
37536;BMP180;23379;51.554;6.736;2023-06-19T00:10:56;100391.00;;;23.80
37536;BMP180;23379;51.554;6.736;2023-06-19T00:13:22;100419.00;;;23.80
37536;BMP180;23379;51.554;6.736;2023-06-19T00:15:47;100402.00;;;24.00
37536;BMP180;23379;51.554;6.736;2023-06-19T00:18:13;100410.00;;;24.00
37536;BMP180;23379;51.554;6.736;2023-06-19T00:20:38;100426.00;;;23.90
37536;BMP180;23379;51.554;6.736;2023-06-19T00:23:04;100407.00;;;23.90
37536;BMP180;23379;51.554;6.736;2023-06-19T00:25:30;100414.00;;;23.70
37536;BMP180;23379;51.554;6.736;2023-06-19T00:27:55;100409.00;;;23.70
37536;BMP180;23379;51.554;6.736;2023-06-19T00:30:21;100395.00;;;24.00
37536;BMP180;23379;51.554;6.736;2023-06-19T00:32:46;100418.00;;;23.80
37536;BMP180;23379;51.554;6.736;2023-06-19T00:35:13;100430.00;;;23.70
37536;BMP180;23379;51.554;6.736;2023-06-19T00:37:39;100441.00;;;23.90
37536;BMP180;23379;51.554;6.736;2023-06-19T00:40:07;100433.00;;;23.90
37536;BMP180;23379;51.554;6.736;2023-06-19T00:42:33;100421.00;;;23.90
37536;BMP180;23379;51.554;6.736;2023-06-19T00:44:59;100425.00;;;24.10
37536;BMP180;23379;51.554;6.736;2023-06-19T00:47:24;100435.00;;;23.90
37536;BMP180;23379;51.554;6.736;2023-06-19T00:49:50;100430.00;;;23.60
37536;BMP180;23379;51.554;6.736;2023-06-19T00:52:16;100449.00;;;23.70
37536;BMP180;23379;51.554;6.736;2023-06-19T00:54:43;100438.00;;;23.50
37536;BMP180;23379;51.554;6.736;2023-06-19T00:57:08;100423.00;;;23.30
37536;BMP180;23379;51.554;6.736;2023-06-19T00:59:34;100439.00;;;23.30
37536;BMP180;23379;51.554;6.736;2023-06-19T01:02:00;100439.00;;;23.40
37536;BMP180;23379;51.554;6.736;2023-06-19T01:04:25;100443.00;;;23.50
37536;BMP180;23379;51.554;6.736;2023-06-19T01:06:59;100436.00;;;23.40
37536;BMP180;23379;51.554;6.736;2023-06-19T01:09:31;100440.00;;;23.50
37536;BMP180;23379;51.554;6.736;2023-06-19T01:12:08;100454.00;;;23.50
37536;BMP180;23379;51.554;6.736;2023-06-19T01:14:55;100438.00;;;23.10
37536;BMP180;23379;51.554;6.736;2023-06-19T01:17:22;100455.00;;;23.20
37536;BMP180;23379;51.554;6.736;2023-06-19T01:19:48;100467.00;;;23.00
37536;BMP180;23379;51.554;6.736;2023-06-19T01:22:30;100470.00;;;23.20
37536;BMP180;23379;51.554;6.736;2023-06-19T01:24:56;100459.00;;;23.10
37536;BMP180;23379;51.554;6.736;2023-06-19T01:27:24;100442.00;;;22.70
37536;BMP180;23379;51.554;6.736;2023-06-19T01:29:51;100448.00;;;22.60
37536;BMP180;23379;51.554;6.736;2023-06-19T01:35:19;100449.00;;;22.60
37536;BMP180;23379;51.554;6.736;2023-06-19T01:37:47;100448.00;;;22.50
37536;BMP180;23379;51.554;6.736;2023-06-19T01:40:14;100435.00;;;22.30
37536;BMP180;23379;51.554;6.736;2023-06-19T01:42:41;100436.00;;;22.10
37536;BMP180;23379;51.554;6.736;2023-06-19T01:45:07;100442.00;;;22.30
37536;BMP180;23379;51.554;6.736;2023-06-19T01:47:33;100426.00;;;22.10
37536;BMP180;23379;51.554;6.736;2023-06-19T01:49:58;100445.00;;;22.30
37536;BMP180;23379;51.554;6.736;2023-06-19T01:52:24;100435.00;;;22.10
37536;BMP180;23379;51.554;6.736;2023-06-19T01:54:50;100443.00;;;22.10
37536;BMP180;23379;51.554;6.736;2023-06-19T01:57:16;100436.00;;;22.10
37536;BMP180;23379;51.554;6.736;2023-06-19T01:59:41;100448.00;;;21.70
37536;BMP180;23379;51.554;6.736;2023-06-19T02:02:07;100442.00;;;21.70
37536;BMP180;23379;51.554;6.736;2023-06-19T02:04:33;100450.00;;;21.70
37536;BMP180;23379;51.554;6.736;2023-06-19T02:06:58;100438.00;;;21.70
37536;BMP180;23379;51.554;6.736;2023-06-19T02:09:23;100443.00;;;21.40
37536;BMP180;23379;51.554;6.736;2023-06-19T02:11:49;100443.00;;;21.30
37536;BMP180;23379;51.554;6.736;2023-06-19T02:14:14;100389.00;;;21.30
37536;BMP180;23379;51.554;6.736;2023-06-19T02:16:40;100452.00;;;21.20
37536;BMP180;23379;51.554;6.736;2023-06-19T02:19:10;100455.00;;;21.10
37536;BMP180;23379;51.554;6.736;2023-06-19T02:21:35;100453.00;;;21.10
37536;BMP180;23379;51.554;6.736;2023-06-19T02:24:01;100479.00;;;21.10
37536;BMP180;23379;51.554;6.736;2023-06-19T02:26:26;100470.00;;;21.10
37536;BMP180;23379;51.554;6.736;2023-06-19T02:28:54;100497.00;;;21.10
37536;BMP180;23379;51.554;6.736;2023-06-19T02:31:21;100496.00;;;20.90
37536;BMP180;23379;51.554;6.736;2023-06-19T02:33:46;100497.00;;;21.20
37536;BMP180;23379;51.554;6.736;2023-06-19T02:36:12;100493.00;;;21.30
37536;BMP180;23379;51.554;6.736;2023-06-19T02:38:37;100502.00;;;21.30
37536;BMP180;23379;51.554;6.736;2023-06-19T02:41:03;100500.00;;;21.10
37536;BMP180;23379;51.554;6.736;2023-06-19T02:43:29;100496.00;;;21.10
37536;BMP180;23379;51.554;6.736;2023-06-19T02:45:55;100508.00;;;21.20
37536;BMP180;23379;51.554;6.736;2023-06-19T02:48:20;100507.00;;;21.40
37536;BMP180;23379;51.554;6.736;2023-06-19T02:50:46;100503.00;;;21.50
37536;BMP180;23379;51.554;6.736;2023-06-19T02:53:11;100498.00;;;21.60
37536;BMP180;23379;51.554;6.736;2023-06-19T02:55:36;100515.00;;;21.70
37536;BMP180;23379;51.554;6.736;2023-06-19T02:58:02;100497.00;;;21.70
37536;BMP180;23379;51.554;6.736;2023-06-19T03:00:28;100521.00;;;21.70
37536;BMP180;23379;51.554;6.736;2023-06-19T03:02:54;100540.00;;;21.80
37536;BMP180;23379;51.554;6.736;2023-06-19T03:05:19;100502.00;;;21.80
37536;BMP180;23379;51.554;6.736;2023-06-19T03:07:45;100543.00;;;21.60
37536;BMP180;23379;51.554;6.736;2023-06-19T03:10:10;100511.00;;;21.60
37536;BMP180;23379;51.554;6.736;2023-06-19T03:12:35;100517.00;;;21.70
37536;BMP180;23379;51.554;6.736;2023-06-19T03:15:01;100530.00;;;21.80
37536;BMP180;23379;51.554;6.736;2023-06-19T03:17:26;100521.00;;;21.80
37536;BMP180;23379;51.554;6.736;2023-06-19T03:19:52;100505.00;;;21.80
37536;BMP180;23379;51.554;6.736;2023-06-19T03:22:19;100529.00;;;21.80
37536;BMP180;23379;51.554;6.736;2023-06-19T03:24:45;100533.00;;;21.70
37536;BMP180;23379;51.554;6.736;2023-06-19T03:27:11;100534.00;;;21.90
37536;BMP180;23379;51.554;6.736;2023-06-19T03:29:36;100514.00;;;21.60
37536;BMP180;23379;51.554;6.736;2023-06-19T03:32:01;100521.00;;;21.60
37536;BMP180;23379;51.554;6.736;2023-06-19T03:34:27;100540.00;;;21.70
37536;BMP180;23379;51.554;6.736;2023-06-19T03:36:52;100478.00;;;21.80
37536;BMP180;23379;51.554;6.736;2023-06-19T03:39:17;100536.00;;;21.60
37536;BMP180;23379;51.554;6.736;2023-06-19T03:41:43;100546.00;;;21.70
37536;BMP180;23379;51.554;6.736;2023-06-19T03:44:08;100525.00;;;21.60
37536;BMP180;23379;51.554;6.736;2023-06-19T03:46:34;100561.00;;;21.40
37536;BMP180;23379;51.554;6.736;2023-06-19T03:48:59;100567.00;;;21.30
37536;BMP180;23379;51.554;6.736;2023-06-19T03:51:24;100566.00;;;21.30
37536;BMP180;23379;51.554;6.736;2023-06-19T03:53:50;100548.00;;;21.20
37536;BMP180;23379;51.554;6.736;2023-06-19T03:56:15;100565.00;;;21.40
37536;BMP180;23379;51.554;6.736;2023-06-19T03:58:40;100575.00;;;21.30
37536;BMP180;23379;51.554;6.736;2023-06-19T04:01:06;100564.00;;;21.10
37536;BMP180;23379;51.554;6.736;2023-06-19T04:03:31;100579.00;;;20.90
37536;BMP180;23379;51.554;6.736;2023-06-19T04:05:57;100586.00;;;21.00
37536;BMP180;23379;51.554;6.736;2023-06-19T04:08:22;100538.00;;;21.00
37536;BMP180;23379;51.554;6.736;2023-06-19T04:10:47;100606.00;;;21.00
37536;BMP180;23379;51.554;6.736;2023-06-19T04:13:13;100610.00;;;21.20
37536;BMP180;23379;51.554;6.736;2023-06-19T04:15:38;100614.00;;;21.10
37536;BMP180;23379;51.554;6.736;2023-06-19T04:18:04;100625.00;;;20.90
37536;BMP180;23379;51.554;6.736;2023-06-19T04:20:29;100609.00;;;20.60
37536;BMP180;23379;51.554;6.736;2023-06-19T04:22:54;100618.00;;;20.60
37536;BMP180;23379;51.554;6.736;2023-06-19T04:25:20;100614.00;;;20.50
37536;BMP180;23379;51.554;6.736;2023-06-19T04:27:45;100590.00;;;20.60
37536;BMP180;23379;51.554;6.736;2023-06-19T04:30:11;100620.00;;;20.60
37536;BMP180;23379;51.554;6.736;2023-06-19T04:32:37;100615.00;;;20.80
37536;BMP180;23379;51.554;6.736;2023-06-19T04:35:09;100614.00;;;20.70
37536;BMP180;23379;51.554;6.736;2023-06-19T04:37:34;100622.00;;;21.10
37536;BMP180;23379;51.554;6.736;2023-06-19T04:40:00;100611.00;;;21.30
37536;BMP180;23379;51.554;6.736;2023-06-19T04:42:25;100641.00;;;21.60
37536;BMP180;23379;51.554;6.736;2023-06-19T04:44:52;100618.00;;;21.80
37536;BMP180;23379;51.554;6.736;2023-06-19T04:47:19;100622.00;;;21.50
37536;BMP180;23379;51.554;6.736;2023-06-19T04:49:45;100631.00;;;21.60
37536;BMP180;23379;51.554;6.736;2023-06-19T04:52:11;100638.00;;;21.40
37536;BMP180;23379;51.554;6.736;2023-06-19T04:54:36;100616.00;;;21.20
37536;BMP180;23379;51.554;6.736;2023-06-19T04:57:02;100648.00;;;21.10
37536;BMP180;23379;51.554;6.736;2023-06-19T04:59:27;100654.00;;;21.30
37536;BMP180;23379;51.554;6.736;2023-06-19T05:01:55;100653.00;;;21.00
37536;BMP180;23379;51.554;6.736;2023-06-19T05:04:20;100654.00;;;20.90
37536;BMP180;23379;51.554;6.736;2023-06-19T05:06:47;100669.00;;;20.90
37536;BMP180;23379;51.554;6.736;2023-06-19T05:09:13;100655.00;;;20.80
37536;BMP180;23379;51.554;6.736;2023-06-19T05:11:38;100675.00;;;21.00
37536;BMP180;23379;51.554;6.736;2023-06-19T05:14:03;100668.00;;;21.00
37536;BMP180;23379;51.554;6.736;2023-06-19T05:16:29;100618.00;;;21.00
37536;BMP180;23379;51.554;6.736;2023-06-19T05:18:54;100679.00;;;21.10
37536;BMP180;23379;51.554;6.736;2023-06-19T05:21:20;100679.00;;;20.90
37536;BMP180;23379;51.554;6.736;2023-06-19T05:23:46;100680.00;;;20.80
37536;BMP180;23379;51.554;6.736;2023-06-19T05:26:16;100679.00;;;21.10
37536;BMP180;23379;51.554;6.736;2023-06-19T05:32:00;100690.00;;;21.70
37536;BMP180;23379;51.554;6.736;2023-06-19T05:34:25;100657.00;;;21.20
37536;BMP180;23379;51.554;6.736;2023-06-19T05:36:51;100646.00;;;21.30
37536;BMP180;23379;51.554;6.736;2023-06-19T05:39:16;100677.00;;;21.30
37536;BMP180;23379;51.554;6.736;2023-06-19T05:41:44;100704.00;;;20.90
37536;BMP180;23379;51.554;6.736;2023-06-19T05:44:11;100692.00;;;20.90
37536;BMP180;23379;51.554;6.736;2023-06-19T05:46:40;100681.00;;;20.80
37536;BMP180;23379;51.554;6.736;2023-06-19T05:49:05;100684.00;;;20.80
37536;BMP180;23379;51.554;6.736;2023-06-19T05:51:31;100677.00;;;20.60
37536;BMP180;23379;51.554;6.736;2023-06-19T05:53:56;100693.00;;;20.90
37536;BMP180;23379;51.554;6.736;2023-06-19T05:56:26;100688.00;;;21.10
37536;BMP180;23379;51.554;6.736;2023-06-19T05:58:51;100657.00;;;21.10
37536;BMP180;23379;51.554;6.736;2023-06-19T06:01:16;100684.00;;;20.90
37536;BMP180;23379;51.554;6.736;2023-06-19T06:03:43;100693.00;;;21.10
37536;BMP180;23379;51.554;6.736;2023-06-19T06:06:08;100694.00;;;21.20
37536;BMP180;23379;51.554;6.736;2023-06-19T06:08:33;100705.00;;;21.20
37536;BMP180;23379;51.554;6.736;2023-06-19T06:10:59;100713.00;;;21.00
37536;BMP180;23379;51.554;6.736;2023-06-19T06:13:25;100694.00;;;21.00
37536;BMP180;23379;51.554;6.736;2023-06-19T06:15:50;100725.00;;;21.10
37536;BMP180;23379;51.554;6.736;2023-06-19T06:18:16;100688.00;;;21.30
37536;BMP180;23379;51.554;6.736;2023-06-19T06:20:41;100699.00;;;21.00
37536;BMP180;23379;51.554;6.736;2023-06-19T06:23:07;100683.00;;;21.00
37536;BMP180;23379;51.554;6.736;2023-06-19T06:25:32;100715.00;;;21.40
37536;BMP180;23379;51.554;6.736;2023-06-19T06:27:58;100711.00;;;21.00
37536;BMP180;23379;51.554;6.736;2023-06-19T06:30:23;100709.00;;;21.20
37536;BMP180;23379;51.554;6.736;2023-06-19T06:32:49;100711.00;;;21.30
37536;BMP180;23379;51.554;6.736;2023-06-19T06:35:15;100723.00;;;21.70
37536;BMP180;23379;51.554;6.736;2023-06-19T06:37:40;100710.00;;;21.40
37536;BMP180;23379;51.554;6.736;2023-06-19T06:40:07;100711.00;;;21.70
37536;BMP180;23379;51.554;6.736;2023-06-19T06:42:36;100697.00;;;21.80
37536;BMP180;23379;51.554;6.736;2023-06-19T06:45:03;100704.00;;;22.00
37536;BMP180;23379;51.554;6.736;2023-06-19T06:47:28;100730.00;;;22.00
37536;BMP180;23379;51.554;6.736;2023-06-19T06:49:54;100713.00;;;21.90
37536;BMP180;23379;51.554;6.736;2023-06-19T06:52:19;100703.00;;;21.90
37536;BMP180;23379;51.554;6.736;2023-06-19T06:54:44;100716.00;;;22.10
37536;BMP180;23379;51.554;6.736;2023-06-19T06:57:10;100724.00;;;21.90
37536;BMP180;23379;51.554;6.736;2023-06-19T06:59:35;100732.00;;;21.90
37536;BMP180;23379;51.554;6.736;2023-06-19T07:02:00;100728.00;;;22.30
37536;BMP180;23379;51.554;6.736;2023-06-19T07:04:26;100735.00;;;22.80
37536;BMP180;23379;51.554;6.736;2023-06-19T07:06:51;100739.00;;;22.80
37536;BMP180;23379;51.554;6.736;2023-06-19T07:09:17;100724.00;;;22.50
37536;BMP180;23379;51.554;6.736;2023-06-19T07:11:43;100747.00;;;22.90
37536;BMP180;23379;51.554;6.736;2023-06-19T07:14:08;100759.00;;;22.50
37536;BMP180;23379;51.554;6.736;2023-06-19T07:16:34;100755.00;;;21.80
37536;BMP180;23379;51.554;6.736;2023-06-19T07:18:59;100747.00;;;21.90
37536;BMP180;23379;51.554;6.736;2023-06-19T07:21:27;100783.00;;;21.70
37536;BMP180;23379;51.554;6.736;2023-06-19T07:23:53;100773.00;;;21.60
37536;BMP180;23379;51.554;6.736;2023-06-19T07:26:18;100754.00;;;21.90
37536;BMP180;23379;51.554;6.736;2023-06-19T07:28:44;100764.00;;;21.50
37536;BMP180;23379;51.554;6.736;2023-06-19T07:31:09;100788.00;;;21.50
37536;BMP180;23379;51.554;6.736;2023-06-19T07:33:34;100774.00;;;21.20
37536;BMP180;23379;51.554;6.736;2023-06-19T07:36:00;100781.00;;;21.20
37536;BMP180;23379;51.554;6.736;2023-06-19T07:38:27;100778.00;;;21.60
37536;BMP180;23379;51.554;6.736;2023-06-19T07:40:53;100769.00;;;22.10
37536;BMP180;23379;51.554;6.736;2023-06-19T07:43:18;100779.00;;;22.20
37536;BMP180;23379;51.554;6.736;2023-06-19T07:45:43;100762.00;;;22.00
37536;BMP180;23379;51.554;6.736;2023-06-19T07:48:09;100762.00;;;22.50
37536;BMP180;23379;51.554;6.736;2023-06-19T07:50:34;100772.00;;;22.90
37536;BMP180;23379;51.554;6.736;2023-06-19T07:53:00;100768.00;;;22.80
37536;BMP180;23379;51.554;6.736;2023-06-19T07:55:25;100777.00;;;23.00
37536;BMP180;23379;51.554;6.736;2023-06-19T07:57:50;100759.00;;;23.60
37536;BMP180;23379;51.554;6.736;2023-06-19T08:00:17;100763.00;;;24.00
37536;BMP180;23379;51.554;6.736;2023-06-19T08:02:43;100768.00;;;24.70
37536;BMP180;23379;51.554;6.736;2023-06-19T08:05:09;100760.00;;;24.20
37536;BMP180;23379;51.554;6.736;2023-06-19T08:07:35;100787.00;;;24.40
37536;BMP180;23379;51.554;6.736;2023-06-19T08:10:01;100770.00;;;24.20
37536;BMP180;23379;51.554;6.736;2023-06-19T08:12:26;100769.00;;;24.10
37536;BMP180;23379;51.554;6.736;2023-06-19T08:14:52;100786.00;;;24.20
37536;BMP180;23379;51.554;6.736;2023-06-19T08:17:17;100776.00;;;24.50
37536;BMP180;23379;51.554;6.736;2023-06-19T08:19:42;100774.00;;;24.50
37536;BMP180;23379;51.554;6.736;2023-06-19T08:22:08;100777.00;;;24.90
37536;BMP180;23379;51.554;6.736;2023-06-19T08:24:34;100769.00;;;25.60
37536;BMP180;23379;51.554;6.736;2023-06-19T08:27:01;100775.00;;;26.20
37536;BMP180;23379;51.554;6.736;2023-06-19T08:29:27;100773.00;;;26.70
37536;BMP180;23379;51.554;6.736;2023-06-19T08:31:52;100760.00;;;27.00
37536;BMP180;23379;51.554;6.736;2023-06-19T08:34:17;100764.00;;;27.00
37536;BMP180;23379;51.554;6.736;2023-06-19T08:36:43;100758.00;;;26.30
37536;BMP180;23379;51.554;6.736;2023-06-19T08:39:12;100776.00;;;25.60
37536;BMP180;23379;51.554;6.736;2023-06-19T08:41:42;100770.00;;;25.30
37536;BMP180;23379;51.554;6.736;2023-06-19T08:44:09;100752.00;;;25.10
37536;BMP180;23379;51.554;6.736;2023-06-19T08:46:35;100760.00;;;25.10
37536;BMP180;23379;51.554;6.736;2023-06-19T08:49:02;100762.00;;;26.30
37536;BMP180;23379;51.554;6.736;2023-06-19T08:51:28;100771.00;;;26.20
37536;BMP180;23379;51.554;6.736;2023-06-19T08:53:59;100806.00;;;25.90
37536;BMP180;23379;51.554;6.736;2023-06-19T08:56:25;100788.00;;;25.90
37536;BMP180;23379;51.554;6.736;2023-06-19T08:58:50;100787.00;;;26.00
37536;BMP180;23379;51.554;6.736;2023-06-19T09:01:19;100803.00;;;26.40
37536;BMP180;23379;51.554;6.736;2023-06-19T09:03:45;100811.00;;;25.80
37536;BMP180;23379;51.554;6.736;2023-06-19T09:06:15;100801.00;;;26.10
37536;BMP180;23379;51.554;6.736;2023-06-19T09:08:41;100796.00;;;26.10
37536;BMP180;23379;51.554;6.736;2023-06-19T09:11:06;100800.00;;;26.00
37536;BMP180;23379;51.554;6.736;2023-06-19T09:13:32;100799.00;;;26.40
37536;BMP180;23379;51.554;6.736;2023-06-19T09:16:06;100803.00;;;27.20
37536;BMP180;23379;51.554;6.736;2023-06-19T09:18:42;100806.00;;;26.90
37536;BMP180;23379;51.554;6.736;2023-06-19T09:21:28;100733.00;;;26.70
37536;BMP180;23379;51.554;6.736;2023-06-19T09:24:07;100783.00;;;26.70
37536;BMP180;23379;51.554;6.736;2023-06-19T09:26:34;100754.00;;;26.40
37536;BMP180;23379;51.554;6.736;2023-06-19T09:29:15;100731.00;;;27.00
37536;BMP180;23379;51.554;6.736;2023-06-19T09:31:42;100804.00;;;26.00
37536;BMP180;23379;51.554;6.736;2023-06-19T09:34:07;100809.00;;;25.90
37536;BMP180;23379;51.554;6.736;2023-06-19T09:36:34;100762.00;;;26.70
37536;BMP180;23379;51.554;6.736;2023-06-19T09:39:02;100762.00;;;26.80
37536;BMP180;23379;51.554;6.736;2023-06-19T09:41:29;100769.00;;;27.10
37536;BMP180;23379;51.554;6.736;2023-06-19T09:43:58;100743.00;;;27.90
37536;BMP180;23379;51.554;6.736;2023-06-19T09:46:36;100804.00;;;29.00
37536;BMP180;23379;51.554;6.736;2023-06-19T09:49:03;100804.00;;;28.60
37536;BMP180;23379;51.554;6.736;2023-06-19T09:51:33;100831.00;;;28.30
37536;BMP180;23379;51.554;6.736;2023-06-19T09:54:01;100818.00;;;28.90
37536;BMP180;23379;51.554;6.736;2023-06-19T09:56:28;100807.00;;;28.00
37536;BMP180;23379;51.554;6.736;2023-06-19T09:58:56;100831.00;;;28.30
37536;BMP180;23379;51.554;6.736;2023-06-19T10:01:26;100828.00;;;27.00
37536;BMP180;23379;51.554;6.736;2023-06-19T10:04:07;100843.00;;;27.90
37536;BMP180;23379;51.554;6.736;2023-06-19T10:06:32;100818.00;;;28.30
37536;BMP180;23379;51.554;6.736;2023-06-19T10:09:07;100863.00;;;27.70
37536;BMP180;23379;51.554;6.736;2023-06-19T10:11:51;100858.00;;;28.00
37536;BMP180;23379;51.554;6.736;2023-06-19T10:14:20;100850.00;;;28.50
37536;BMP180;23379;51.554;6.736;2023-06-19T10:16:46;100822.00;;;29.20
37536;BMP180;23379;51.554;6.736;2023-06-19T10:19:21;100812.00;;;29.60
37536;BMP180;23379;51.554;6.736;2023-06-19T10:21:49;100844.00;;;30.90
37536;BMP180;23379;51.554;6.736;2023-06-19T10:24:19;100858.00;;;31.30
37536;BMP180;23379;51.554;6.736;2023-06-19T10:26:56;100852.00;;;31.20
37536;BMP180;23379;51.554;6.736;2023-06-19T10:29:22;100848.00;;;32.10
37536;BMP180;23379;51.554;6.736;2023-06-19T10:31:49;100826.00;;;31.40
37536;BMP180;23379;51.554;6.736;2023-06-19T10:34:15;100828.00;;;30.70
37536;BMP180;23379;51.554;6.736;2023-06-19T10:36:40;100853.00;;;31.90
37536;BMP180;23379;51.554;6.736;2023-06-19T10:39:06;100855.00;;;31.70
37536;BMP180;23379;51.554;6.736;2023-06-19T10:41:32;100857.00;;;32.20
37536;BMP180;23379;51.554;6.736;2023-06-19T10:43:59;100830.00;;;32.80
37536;BMP180;23379;51.554;6.736;2023-06-19T10:46:30;100867.00;;;33.00
37536;BMP180;23379;51.554;6.736;2023-06-19T10:48:55;100856.00;;;32.40
37536;BMP180;23379;51.554;6.736;2023-06-19T10:51:28;100816.00;;;32.10
37536;BMP180;23379;51.554;6.736;2023-06-19T10:53:55;100850.00;;;31.90
37536;BMP180;23379;51.554;6.736;2023-06-19T10:56:22;100835.00;;;32.40
37536;BMP180;23379;51.554;6.736;2023-06-19T10:58:47;100838.00;;;32.80
37536;BMP180;23379;51.554;6.736;2023-06-19T11:01:13;100828.00;;;32.70
37536;BMP180;23379;51.554;6.736;2023-06-19T11:03:38;100836.00;;;33.10
37536;BMP180;23379;51.554;6.736;2023-06-19T11:06:04;100854.00;;;33.50
37536;BMP180;23379;51.554;6.736;2023-06-19T11:08:29;100837.00;;;34.00
37536;BMP180;23379;51.554;6.736;2023-06-19T11:10:55;100845.00;;;34.00
37536;BMP180;23379;51.554;6.736;2023-06-19T11:13:27;100822.00;;;33.30
37536;BMP180;23379;51.554;6.736;2023-06-19T11:15:59;100870.00;;;33.20
37536;BMP180;23379;51.554;6.736;2023-06-19T11:18:31;100808.00;;;33.40
37536;BMP180;23379;51.554;6.736;2023-06-19T11:21:00;100796.00;;;33.70
37536;BMP180;23379;51.554;6.736;2023-06-19T11:23:28;100853.00;;;34.80
37536;BMP180;23379;51.554;6.736;2023-06-19T11:25:54;100839.00;;;34.40
37536;BMP180;23379;51.554;6.736;2023-06-19T11:28:27;100803.00;;;35.80
37536;BMP180;23379;51.554;6.736;2023-06-19T11:31:02;100851.00;;;35.40
37536;BMP180;23379;51.554;6.736;2023-06-19T11:33:28;100849.00;;;34.60
37536;BMP180;23379;51.554;6.736;2023-06-19T11:35:54;100832.00;;;34.90
37536;BMP180;23379;51.554;6.736;2023-06-19T11:38:26;100853.00;;;34.60
37536;BMP180;23379;51.554;6.736;2023-06-19T11:40:56;100853.00;;;34.50
37536;BMP180;23379;51.554;6.736;2023-06-19T11:43:29;100854.00;;;33.80
37536;BMP180;23379;51.554;6.736;2023-06-19T11:46:05;100844.00;;;33.20
37536;BMP180;23379;51.554;6.736;2023-06-19T11:48:30;100831.00;;;33.80
37536;BMP180;23379;51.554;6.736;2023-06-19T11:50:56;100859.00;;;33.70
37536;BMP180;23379;51.554;6.736;2023-06-19T11:53:22;100821.00;;;32.70
37536;BMP180;23379;51.554;6.736;2023-06-19T11:55:49;100835.00;;;32.00
37536;BMP180;23379;51.554;6.736;2023-06-19T11:58:14;100847.00;;;32.20
37536;BMP180;23379;51.554;6.736;2023-06-19T12:00:44;100832.00;;;32.30
37536;BMP180;23379;51.554;6.736;2023-06-19T12:03:10;100826.00;;;31.70
37536;BMP180;23379;51.554;6.736;2023-06-19T12:05:36;100830.00;;;31.80
37536;BMP180;23379;51.554;6.736;2023-06-19T12:08:02;100836.00;;;31.90
37536;BMP180;23379;51.554;6.736;2023-06-19T12:10:32;100832.00;;;31.90
37536;BMP180;23379;51.554;6.736;2023-06-19T12:12:57;100843.00;;;32.10
37536;BMP180;23379;51.554;6.736;2023-06-19T12:15:24;100834.00;;;32.10
37536;BMP180;23379;51.554;6.736;2023-06-19T12:17:51;100834.00;;;32.60
37536;BMP180;23379;51.554;6.736;2023-06-19T12:20:16;100829.00;;;32.50
37536;BMP180;23379;51.554;6.736;2023-06-19T12:22:41;100819.00;;;32.60
37536;BMP180;23379;51.554;6.736;2023-06-19T12:25:08;100838.00;;;32.90
37536;BMP180;23379;51.554;6.736;2023-06-19T12:27:34;100797.00;;;33.00
37536;BMP180;23379;51.554;6.736;2023-06-19T12:29:59;100793.00;;;34.10
37536;BMP180;23379;51.554;6.736;2023-06-19T12:32:25;100830.00;;;34.50
37536;BMP180;23379;51.554;6.736;2023-06-19T12:34:50;100811.00;;;34.90
37536;BMP180;23379;51.554;6.736;2023-06-19T12:37:20;100845.00;;;34.50
37536;BMP180;23379;51.554;6.736;2023-06-19T12:39:46;100831.00;;;34.10
37536;BMP180;23379;51.554;6.736;2023-06-19T12:42:11;100825.00;;;35.00
37536;BMP180;23379;51.554;6.736;2023-06-19T12:44:39;100820.00;;;34.60
37536;BMP180;23379;51.554;6.736;2023-06-19T12:47:04;100844.00;;;33.60
37536;BMP180;23379;51.554;6.736;2023-06-19T12:49:31;100839.00;;;32.80
37536;BMP180;23379;51.554;6.736;2023-06-19T12:51:56;100795.00;;;32.30
37536;BMP180;23379;51.554;6.736;2023-06-19T12:54:22;100833.00;;;32.00
37536;BMP180;23379;51.554;6.736;2023-06-19T12:56:48;100844.00;;;33.30
37536;BMP180;23379;51.554;6.736;2023-06-19T12:59:13;100845.00;;;33.20
37536;BMP180;23379;51.554;6.736;2023-06-19T13:01:41;100858.00;;;34.40
37536;BMP180;23379;51.554;6.736;2023-06-19T13:04:06;100846.00;;;35.70
37536;BMP180;23379;51.554;6.736;2023-06-19T13:06:31;100848.00;;;35.90
37536;BMP180;23379;51.554;6.736;2023-06-19T13:08:57;100839.00;;;36.30
37536;BMP180;23379;51.554;6.736;2023-06-19T13:11:22;100839.00;;;36.30
37536;BMP180;23379;51.554;6.736;2023-06-19T13:13:48;100844.00;;;35.70
37536;BMP180;23379;51.554;6.736;2023-06-19T13:16:13;100809.00;;;35.60
37536;BMP180;23379;51.554;6.736;2023-06-19T13:18:41;100833.00;;;35.90
37536;BMP180;23379;51.554;6.736;2023-06-19T13:21:06;100850.00;;;37.00
37536;BMP180;23379;51.554;6.736;2023-06-19T13:23:32;100825.00;;;37.10
37536;BMP180;23379;51.554;6.736;2023-06-19T13:25:57;100797.00;;;36.80
37536;BMP180;23379;51.554;6.736;2023-06-19T13:28:23;100846.00;;;35.90
37536;BMP180;23379;51.554;6.736;2023-06-19T13:30:49;100844.00;;;36.00
37536;BMP180;23379;51.554;6.736;2023-06-19T13:33:15;100828.00;;;35.90
37536;BMP180;23379;51.554;6.736;2023-06-19T13:35:41;100802.00;;;34.60
37536;BMP180;23379;51.554;6.736;2023-06-19T13:38:07;100828.00;;;34.40
37536;BMP180;23379;51.554;6.736;2023-06-19T13:40:32;100778.00;;;35.40
37536;BMP180;23379;51.554;6.736;2023-06-19T13:42:58;100845.00;;;35.20
37536;BMP180;23379;51.554;6.736;2023-06-19T13:45:24;100797.00;;;34.50
37536;BMP180;23379;51.554;6.736;2023-06-19T13:47:50;100764.00;;;33.80
37536;BMP180;23379;51.554;6.736;2023-06-19T13:50:16;100844.00;;;32.80
37536;BMP180;23379;51.554;6.736;2023-06-19T13:52:44;100837.00;;;33.30
37536;BMP180;23379;51.554;6.736;2023-06-19T13:55:10;100831.00;;;32.30
37536;BMP180;23379;51.554;6.736;2023-06-19T13:57:35;100826.00;;;31.80
37536;BMP180;23379;51.554;6.736;2023-06-19T14:00:02;100830.00;;;31.50